Aviation Digital Data Service (ADDS)

Output produced by METARs form (1250 UTC 20 September 2017)
found at http://aviationweather.gov/adds/metars/
 
KROA 201137Z 2012/2112 03004KT P6SM SCT090 
     FM201700 29004KT P6SM VCSH BKN060 
     FM202300 32004KT P6SM SCT060